Time;durP1;ratioP1;P1;durP2;ratioP2;P2;SDS_P1;SDS_P2;PMS_P1;PMS_P2;Temp;Humidity;BMP_temperature;BMP_pressure;BME280_temperature;BME280_humidity;BME280_pressure;Samples;Min_cycle;Max_cycle;Signal;HPM_P1;HPM_P2
2021/12/29 00:00:43;;;;;;;9.77;4.22;;;;;;;8.36;100.00;99947.91;5088113;28;20056;-67
2021/12/29 00:03:09;;;;;;;9.77;4.65;;;;;;;8.35;100.00;99955.03;5089673;28;20546;-68
2021/12/29 00:05:35;;;;;;;7.70;4.25;;;;;;;8.33;100.00;99962.41;5089646;28;20131;-68
2021/12/29 00:08:01;;;;;;;9.88;4.63;;;;;;;8.34;100.00;99965.88;5089556;28;20107;-68
2021/12/29 00:10:26;;;;;;;9.25;3.92;;;;;;;8.33;100.00;99973.03;5089255;28;20107;-68
2021/12/29 00:12:53;;;;;;;6.82;3.78;;;;;;;8.33;100.00;99970.38;5089396;28;20105;-68
2021/12/29 00:15:24;;;;;;;13.60;4.38;;;;;;;8.33;100.00;99991.63;5089370;28;20047;-68
2021/12/29 00:17:50;;;;;;;8.70;4.70;;;;;;;8.31;100.00;99999.00;5089100;28;20021;-68
2021/12/29 00:20:19;;;;;;;11.05;4.63;;;;;;;8.30;100.00;100007.16;5089299;28;20266;-68
2021/12/29 00:22:44;;;;;;;11.45;4.72;;;;;;;8.33;100.00;100020.03;5089310;28;20063;-68
2021/12/29 00:25:11;;;;;;;14.20;5.30;;;;;;;8.31;100.00;100022.91;5089318;28;20024;-67
2021/12/29 00:27:37;;;;;;;13.15;4.97;;;;;;;8.33;100.00;100028.00;5089437;28;20950;-68
2021/12/29 00:30:04;;;;;;;14.35;5.32;;;;;;;8.32;100.00;100037.81;5089330;28;20056;-68
2021/12/29 00:32:30;;;;;;;11.90;5.22;;;;;;;8.33;100.00;100046.59;5089470;28;20530;-67
2021/12/29 00:34:55;;;;;;;11.63;5.47;;;;;;;8.25;100.00;100028.19;5089081;28;20108;-69
2021/12/29 00:37:20;;;;;;;15.57;6.28;;;;;;;8.29;100.00;100043.53;5089329;28;20495;-68
2021/12/29 00:39:46;;;;;;;11.48;5.30;;;;;;;8.31;100.00;100046.00;5087721;28;20088;-68
2021/12/29 00:42:11;;;;;;;13.23;5.18;;;;;;;8.25;100.00;100042.31;5089236;28;20039;-67
2021/12/29 00:44:37;;;;;;;9.77;4.88;;;;;;;8.31;100.00;100064.59;5087912;28;20059;-68
2021/12/29 00:47:03;;;;;;;12.13;5.53;;;;;;;8.29;100.00;100070.09;5089114;28;20387;-67
2021/12/29 00:49:35;;;;;;;15.38;6.03;;;;;;;8.29;100.00;100072.75;5088960;28;20032;-67
2021/12/29 00:52:05;;;;;;;12.68;4.82;;;;;;;8.30;100.00;100079.69;5089187;28;20035;-67
2021/12/29 00:54:31;;;;;;;12.48;4.85;;;;;;;8.30;100.00;100085.00;5089142;28;20123;-67
2021/12/29 00:56:57;;;;;;;14.50;4.85;;;;;;;8.30;100.00;100087.66;5088992;28;20089;-67
2021/12/29 00:59:23;;;;;;;12.55;5.05;;;;;;;8.27;100.00;100080.09;5088928;28;20680;-67
2021/12/29 01:01:50;;;;;;;10.40;4.88;;;;;;;8.32;100.00;100090.13;5088993;28;20382;-67
2021/12/29 01:04:17;;;;;;;13.45;4.32;;;;;;;8.32;100.00;100104.22;5089031;28;20024;-67
2021/12/29 01:06:42;;;;;;;10.70;4.75;;;;;;;8.31;100.00;100105.25;5088954;28;20039;-68
2021/12/29 01:09:07;;;;;;;10.00;4.78;;;;;;;8.33;100.00;100113.84;5087248;28;20028;-68
2021/12/29 01:11:33;;;;;;;10.45;5.38;;;;;;;8.33;100.00;100121.81;5088761;28;20131;-68
2021/12/29 01:13:58;;;;;;;13.35;4.55;;;;;;;8.32;100.00;100122.81;5088917;28;20467;-67
2021/12/29 01:19:18;;;;;;;8.45;4.40;;;;;;;8.32;100.00;100130.78;5087235;28;20039;-68
2021/12/29 01:21:46;;;;;;;11.10;4.80;;;;;;;8.31;100.00;100133.66;5088889;28;20035;-68
2021/12/29 01:24:13;;;;;;;11.35;4.85;;;;;;;8.30;100.00;100134.66;5087485;28;20028;-68
2021/12/29 01:26:41;;;;;;;12.32;5.35;;;;;;;8.33;100.00;100151.06;5088949;28;20067;-67
2021/12/29 01:29:07;;;;;;;11.48;5.68;;;;;;;8.31;100.00;100161.06;5088741;28;20111;-68
2021/12/29 01:31:33;;;;;;;12.02;5.18;;;;;;;8.32;100.00;100153.88;5091543;28;20032;-68
2021/12/29 01:33:59;;;;;;;10.30;5.25;;;;;;;8.32;100.00;100160.03;5092454;28;20042;-68
2021/12/29 01:36:26;;;;;;;10.77;5.50;;;;;;;8.34;100.00;100170.47;5092208;28;20028;-67
2021/12/29 01:38:51;;;;;;;9.55;5.03;;;;;;;8.35;100.00;100169.44;5090980;28;20036;-68
2021/12/29 01:41:17;;;;;;;10.90;5.80;;;;;;;8.35;100.00;100193.34;5091026;28;20114;-67
2021/12/29 01:43:42;;;;;;;12.73;6.00;;;;;;;8.35;100.00;100196.81;5092294;28;20024;-67
2021/12/29 01:46:08;;;;;;;10.82;5.60;;;;;;;8.30;100.00;100191.28;5091883;28;20123;-67
2021/12/29 01:48:33;;;;;;;12.52;5.38;;;;;;;8.34;100.00;100189.88;5091971;28;20027;-68
2021/12/29 01:50:59;;;;;;;11.88;5.13;;;;;;;8.32;100.00;100204.38;5092103;28;20031;-68
2021/12/29 01:53:29;;;;;;;11.18;5.72;;;;;;;8.33;100.00;100201.53;5092339;28;20039;-67
2021/12/29 01:55:55;;;;;;;9.93;5.03;;;;;;;8.33;100.00;100209.50;5092214;28;20054;-67
2021/12/29 01:58:23;;;;;;;11.60;5.75;;;;;;;8.32;100.00;100204.38;5092104;28;20111;-68
2021/12/29 02:00:50;;;;;;;11.07;4.93;;;;;;;8.30;100.00;100217.03;5091876;28;20135;-67
2021/12/29 02:03:15;;;;;;;10.10;5.18;;;;;;;8.26;100.00;100219.25;5092048;28;20040;-67
2021/12/29 02:05:42;;;;;;;12.82;6.10;;;;;;;8.27;100.00;100212.94;5092032;28;20035;-67
2021/12/29 02:08:08;;;;;;;9.57;4.93;;;;;;;8.27;100.00;100204.16;5091817;28;20032;-67
2021/12/29 02:10:42;;;;;;;10.43;4.93;;;;;;;8.27;100.00;100214.78;5091771;28;20031;-67
2021/12/29 02:13:09;;;;;;;9.48;4.65;;;;;;;8.25;100.00;100227.41;5091809;28;20465;-68
2021/12/29 02:15:35;;;;;;;15.40;5.05;;;;;;;8.27;100.00;100234.19;5091823;28;20047;-67
2021/12/29 02:18:00;;;;;;;10.55;4.88;;;;;;;8.29;100.00;100244.63;5090177;28;20463;-68
2021/12/29 02:20:27;;;;;;;9.65;4.75;;;;;;;8.27;100.00;100242.16;5091745;28;20094;-68
2021/12/29 02:23:11;;;;;;;11.48;5.00;;;;;;;8.27;100.00;100238.69;5091645;28;20036;-67
2021/12/29 02:25:47;;;;;;;16.33;5.85;;;;;;;8.30;100.00;100249.72;5091767;28;20042;-68
2021/12/29 02:28:13;;;;;;;10.32;5.20;;;;;;;8.31;100.00;100247.91;5091762;28;20082;-68
2021/12/29 02:30:39;;;;;;;7.88;4.15;;;;;;;8.31;100.00;100255.88;5091457;28;20064;-68
2021/12/29 02:33:06;;;;;;;10.15;4.95;;;;;;;8.30;100.00;100255.03;5075957;28;20063;-67
2021/12/29 02:35:32;;;;;;;10.90;5.28;;;;;;;8.28;100.00;100246.47;5072067;28;20028;-67
2021/12/29 02:38:00;;;;;;;11.88;4.93;;;;;;;8.24;100.00;100250.50;5071579;28;20028;-67
2021/12/29 02:40:26;;;;;;;15.60;6.28;;;;;;;8.27;100.00;100246.66;5071828;28;20029;-67
2021/12/29 02:42:51;;;;;;;10.77;6.30;;;;;;;8.28;100.00;100253.63;5071405;28;20048;-68
2021/12/29 02:45:21;;;;;;;10.75;5.47;;;;;;;8.30;100.00;100257.69;5071985;28;20071;-68
2021/12/29 02:47:47;;;;;;;11.32;5.82;;;;;;;8.30;100.00;100260.34;5091016;28;20024;-67
2021/12/29 02:50:15;;;;;;;15.75;6.53;;;;;;;8.30;100.00;100265.66;5091154;28;20079;-68
2021/12/29 02:52:41;;;;;;;12.90;5.18;;;;;;;8.27;100.00;100260.75;5071684;28;20031;-67
2021/12/29 02:55:07;;;;;;;11.50;5.53;;;;;;;8.27;100.00;100266.06;5070357;28;20032;-67
2021/12/29 02:57:32;;;;;;;13.68;6.07;;;;;;;8.26;100.00;100261.78;5071600;28;20036;-68
2021/12/29 02:59:58;;;;;;;15.65;6.57;;;;;;;8.26;100.00;100263.63;5071393;28;20071;-67
2021/12/29 03:02:23;;;;;;;14.55;6.20;;;;;;;8.23;100.00;100264.81;5071640;28;20097;-67
2021/12/29 03:04:49;;;;;;;12.90;5.75;;;;;;;8.21;100.00;100260.72;5071595;28;20577;-68
2021/12/29 03:07:14;;;;;;;13.90;6.65;;;;;;;8.16;100.00;100271.94;5071445;28;20039;-67
2021/12/29 03:09:39;;;;;;;13.73;6.35;;;;;;;8.17;100.00;100281.53;5071118;28;20036;-67
2021/12/29 03:12:05;;;;;;;10.98;5.65;;;;;;;8.12;100.00;100283.94;5090589;28;20024;-67
2021/12/29 03:14:31;;;;;;;13.55;6.63;;;;;;;8.13;100.00;100297.03;5089248;28;20109;-67
2021/12/29 03:16:57;;;;;;;10.70;5.25;;;;;;;8.14;100.00;100292.53;5090633;28;20122;-67
2021/12/29 03:19:22;;;;;;;12.27;5.30;;;;;;;8.10;100.00;100292.13;5090623;28;20068;-67
2021/12/29 03:21:48;;;;;;;14.15;6.25;;;;;;;8.12;100.00;100302.53;5089327;28;20475;-67
2021/12/29 03:24:15;;;;;;;14.82;6.07;;;;;;;8.12;100.00;100316.66;5089218;28;20047;-67
2021/12/29 03:26:41;;;;;;;12.35;5.63;;;;;;;8.14;100.00;100327.06;5090456;28;20028;-67
2021/12/29 03:29:06;;;;;;;12.52;6.57;;;;;;;8.12;100.00;100315.81;5089845;28;20036;-67
2021/12/29 03:31:36;;;;;;;15.65;7.28;;;;;;;8.10;100.00;100323.19;5090029;28;20395;-67
2021/12/29 03:34:02;;;;;;;12.40;6.55;;;;;;;8.09;100.00;100324.19;5090179;28;20113;-67
2021/12/29 03:36:28;;;;;;;15.13;7.00;;;;;;;8.08;100.00;100330.50;5090276;28;20494;-67
2021/12/29 03:38:54;;;;;;;14.05;6.10;;;;;;;8.09;100.00;100340.13;5090070;28;20064;-67
2021/12/29 03:41:20;;;;;;;15.00;6.88;;;;;;;8.10;100.00;100349.75;5089954;28;20141;-67
2021/12/29 03:43:47;;;;;;;15.50;7.43;;;;;;;8.08;100.00;100352.56;5090194;28;20032;-67
2021/12/29 03:46:14;;;;;;;17.08;8.30;;;;;;;8.00;100.00;100334.13;5090211;28;20032;-67
2021/12/29 03:48:41;;;;;;;14.98;8.57;;;;;;;8.09;100.00;100348.91;5090111;28;20032;-67
2021/12/29 03:51:07;;;;;;;20.20;7.70;;;;;;;8.04;100.00;100345.19;5089894;28;20028;-67
2021/12/29 03:53:33;;;;;;;18.70;7.40;;;;;;;8.01;100.00;100345.56;5088526;28;20024;-67
2021/12/29 03:55:59;;;;;;;16.60;7.72;;;;;;;8.07;100.00;100366.88;5084838;28;21083;-67
2021/12/29 03:58:26;;;;;;;18.90;10.00;;;;;;;8.06;100.00;100373.19;5089791;28;20028;-67
2021/12/29 04:01:03;;;;;;;15.90;7.88;;;;;;;8.05;100.00;100374.22;5089631;28;20123;-67
2021/12/29 04:03:28;;;;;;;15.93;7.28;;;;;;;8.05;100.00;100371.56;5089691;28;20070;-68
2021/12/29 04:05:54;;;;;;;17.35;8.50;;;;;;;8.03;100.00;100378.06;5089650;28;20032;-67
2021/12/29 04:08:19;;;;;;;17.55;7.32;;;;;;;8.03;100.00;100370.91;5088350;28;20064;-68
2021/12/29 04:10:45;;;;;;;16.63;8.02;;;;;;;8.03;100.00;100375.41;5089648;28;20074;-67
2021/12/29 04:13:10;;;;;;;19.00;8.63;;;;;;;7.99;100.00;100371.50;5089622;28;20421;-68
2021/12/29 04:15:37;;;;;;;19.27;8.77;;;;;;;8.01;100.00;100385.41;5089646;28;20046;-67
2021/12/29 04:18:14;;;;;;;18.08;7.38;;;;;;;8.00;100.00;100389.91;5089632;28;20063;-68
2021/12/29 04:20:55;;;;;;;17.15;7.70;;;;;;;8.00;100.00;100389.91;5089713;28;20032;-68
2021/12/29 04:23:23;;;;;;;18.10;8.05;;;;;;;7.98;100.00;100381.28;5089567;28;20031;-68
2021/12/29 04:25:53;;;;;;;20.33;8.80;;;;;;;7.98;100.00;100385.78;5089488;28;20467;-67
2021/12/29 04:28:23;;;;;;;18.30;7.07;;;;;;;7.95;100.00;100380.88;5089495;28;20058;-67
2021/12/29 04:30:51;;;;;;;19.17;7.63;;;;;;;7.97;100.00;100390.28;5089337;28;20031;-68
2021/12/29 04:33:17;;;;;;;18.17;7.00;;;;;;;7.97;100.00;100397.44;5070133;28;20494;-67
2021/12/29 04:35:44;;;;;;;15.95;6.97;;;;;;;7.89;100.00;100385.09;5070035;28;20025;-67
2021/12/29 04:38:09;;;;;;;17.15;7.55;;;;;;;7.95;100.00;100399.44;5069993;28;20390;-67
2021/12/29 04:40:34;;;;;;;18.83;7.60;;;;;;;7.96;100.00;100409.06;5069911;28;20020;-68
2021/12/29 04:43:00;;;;;;;18.17;7.07;;;;;;;7.96;100.00;100414.38;5070071;28;20029;-67
2021/12/29 04:45:26;;;;;;;17.98;7.45;;;;;;;7.96;100.00;100417.00;5069894;28;20491;-67
2021/12/29 04:47:51;;;;;;;18.77;7.53;;;;;;;7.95;100.00;100421.50;5068465;28;20541;-68
2021/12/29 04:50:29;;;;;;;17.75;7.13;;;;;;;7.92;100.00;100421.91;5069837;28;20040;-67
2021/12/29 04:52:57;;;;;;;16.23;6.75;;;;;;;7.93;100.00;100430.69;5089175;28;20020;-67
2021/12/29 04:55:23;;;;;;;17.80;7.88;;;;;;;7.96;100.00;100438.25;5089196;28;20084;-68
2021/12/29 04:57:50;;;;;;;16.98;8.23;;;;;;;7.95;100.00;100439.28;5087690;28;20032;-68
2021/12/29 05:00:16;;;;;;;18.85;7.78;;;;;;;7.94;100.00;100445.59;5088827;28;20517;-68
2021/12/29 05:02:42;;;;;;;19.15;7.38;;;;;;;7.90;100.00;100439.84;5088911;28;20043;-68
2021/12/29 05:05:20;;;;;;;20.40;8.63;;;;;;;7.94;100.00;100443.78;5091465;28;20104;-67
2021/12/29 05:10:30;;;;;;;21.00;8.75;;;;;;;7.90;100.00;100456.59;5092980;28;20089;-67
2021/12/29 05:12:55;;;;;;;22.85;10.38;;;;;;;7.90;100.00;100458.44;5093045;28;20027;-67
2021/12/29 05:15:20;;;;;;;19.42;8.93;;;;;;;7.88;100.00;100447.97;5092721;28;20030;-68
2021/12/29 05:17:46;;;;;;;17.35;7.38;;;;;;;7.90;100.00;100453.94;5092021;28;20524;-67
2021/12/29 05:20:12;;;;;;;21.00;8.13;;;;;;;7.87;100.00;100451.66;5092750;28;20016;-67
2021/12/29 05:22:37;;;;;;;18.77;8.48;;;;;;;7.92;100.00;100450.28;5092769;28;20043;-68
2021/12/29 05:25:03;;;;;;;21.05;9.05;;;;;;;7.89;100.00;100443.53;5077113;28;20082;-67
2021/12/29 05:27:28;;;;;;;18.08;7.88;;;;;;;7.91;100.00;100449.44;5073353;28;20107;-68
2021/12/29 05:29:53;;;;;;;25.63;8.98;;;;;;;7.92;100.00;100456.41;5073313;28;20119;-68
2021/12/29 05:32:19;;;;;;;21.05;10.10;;;;;;;7.87;100.00;100445.53;5073383;28;20056;-68
2021/12/29 05:34:44;;;;;;;18.65;8.10;;;;;;;7.90;100.00;100456.59;5073248;28;20467;-68
2021/12/29 05:37:10;;;;;;;20.63;9.15;;;;;;;7.88;100.00;100452.47;5073128;28;20032;-67
2021/12/29 05:39:35;;;;;;;20.70;9.52;;;;;;;7.91;100.00;100460.06;5071394;28;20024;-67
2021/12/29 05:42:00;;;;;;;20.85;9.00;;;;;;;7.88;100.00;100457.78;5072628;28;20029;-67
2021/12/29 05:44:26;;;;;;;19.77;8.57;;;;;;;7.91;100.00;100470.69;5072912;28;20394;-68
2021/12/29 05:46:51;;;;;;;18.45;8.52;;;;;;;7.92;100.00;100471.53;5072929;28;20459;-68
2021/12/29 05:49:17;;;;;;;22.10;8.15;;;;;;;7.90;100.00;100469.88;5072596;28;20337;-68
2021/12/29 05:51:42;;;;;;;22.95;9.68;;;;;;;7.92;100.00;100468.88;5072877;28;20040;-68
2021/12/29 05:54:08;;;;;;;19.45;9.10;;;;;;;7.90;100.00;100475.19;5072690;28;20391;-69
2021/12/29 05:56:34;;;;;;;26.63;8.85;;;;;;;7.89;100.00;100472.72;5072910;28;20072;-68
2021/12/29 05:59:01;;;;;;;18.77;7.22;;;;;;;7.89;100.00;100476.19;5072652;28;20061;-67
2021/12/29 06:01:28;;;;;;;20.42;8.05;;;;;;;7.89;100.00;100473.53;5072535;28;20059;-68
2021/12/29 06:03:54;;;;;;;17.98;8.00;;;;;;;7.89;100.00;100462.94;5072485;28;20039;-67
2021/12/29 06:06:20;;;;;;;19.77;7.53;;;;;;;7.89;100.00;100470.88;5072667;28;20033;-68
2021/12/29 06:08:45;;;;;;;19.90;7.70;;;;;;;7.90;100.00;100475.19;5072521;28;20117;-67
2021/12/29 06:11:10;;;;;;;17.33;7.45;;;;;;;7.88;100.00;100477.19;5072304;28;20475;-67
2021/12/29 06:13:36;;;;;;;20.45;8.18;;;;;;;7.90;100.00;100482.31;5072301;28;20079;-68
2021/12/29 06:16:01;;;;;;;20.00;8.52;;;;;;;7.90;100.00;100495.59;5071693;28;20052;-67
2021/12/29 06:18:27;;;;;;;18.38;8.38;;;;;;;7.85;100.00;100480.22;5071111;28;20040;-67
2021/12/29 06:20:52;;;;;;;20.52;8.60;;;;;;;7.92;100.00;100504.22;5072451;28;20020;-67
2021/12/29 06:23:18;;;;;;;21.13;9.07;;;;;;;7.89;100.00;100496.63;5072414;28;20031;-67
2021/12/29 06:25:43;;;;;;;18.52;8.43;;;;;;;7.89;100.00;100508.06;5072317;28;20048;-67
2021/12/29 06:28:09;;;;;;;19.40;8.80;;;;;;;7.89;100.00;100518.69;5072307;28;20043;-68
2021/12/29 06:30:34;;;;;;;18.13;7.95;;;;;;;7.88;100.00;100530.28;5072164;28;20032;-67
2021/12/29 06:33:00;;;;;;;22.50;8.98;;;;;;;7.90;100.00;100540.75;5071789;28;20033;-67
2021/12/29 06:35:25;;;;;;;18.40;8.60;;;;;;;7.89;100.00;100536.44;5071908;28;20123;-67
2021/12/29 06:37:50;;;;;;;17.38;7.45;;;;;;;7.90;100.00;100541.56;5070621;28;20032;-67
2021/12/29 06:40:16;;;;;;;18.08;7.13;;;;;;;7.89;100.00;100525.84;5071923;28;20025;-70
2021/12/29 06:42:43;;;;;;;18.02;8.32;;;;;;;7.89;100.00;100529.31;5070298;28;20029;-67
2021/12/29 06:45:10;;;;;;;17.35;7.50;;;;;;;7.90;100.00;100535.44;5090812;28;20031;-67
2021/12/29 06:47:36;;;;;;;18.00;7.15;;;;;;;7.89;100.00;100528.50;5091244;28;20035;-68
2021/12/29 06:50:03;;;;;;;18.63;7.97;;;;;;;7.88;100.00;100530.28;5089156;28;20514;-68
2021/12/29 06:52:28;;;;;;;18.52;8.00;;;;;;;7.88;100.00;100526.81;5090841;28;20564;-68
2021/12/29 06:54:54;;;;;;;16.80;6.95;;;;;;;7.86;100.00;100531.53;5091056;28;20036;-67
2021/12/29 06:57:19;;;;;;;19.20;7.38;;;;;;;7.86;100.00;100537.66;5091050;28;20032;-67
2021/12/29 06:59:45;;;;;;;20.75;9.25;;;;;;;7.86;100.00;100542.97;5089451;28;20491;-67
2021/12/29 07:02:11;;;;;;;17.73;7.60;;;;;;;7.85;100.00;100543.13;5090852;28;20138;-68
2021/12/29 07:04:37;;;;;;;17.10;7.75;;;;;;;7.86;100.00;100555.41;5090896;28;20119;-67
2021/12/29 07:07:03;;;;;;;23.50;9.10;;;;;;;7.84;100.00;100552.94;5090798;28;20114;-68
2021/12/29 07:09:28;;;;;;;16.98;7.30;;;;;;;7.85;100.00;100553.75;5090733;28;20120;-68
2021/12/29 07:11:54;;;;;;;16.35;6.63;;;;;;;7.85;100.00;100553.75;5090777;28;20071;-67
2021/12/29 07:14:21;;;;;;;17.25;7.13;;;;;;;7.83;100.00;100551.31;5090792;28;20538;-68
2021/12/29 07:16:47;;;;;;;19.38;7.85;;;;;;;7.81;100.00;100563.13;5090753;28;20931;-68
2021/12/29 07:19:13;;;;;;;17.13;7.50;;;;;;;7.81;100.00;100568.41;5089387;28;20028;-68
2021/12/29 07:21:38;;;;;;;18.08;6.68;;;;;;;7.80;100.00;100572.88;5089394;28;20032;-68
2021/12/29 07:24:05;;;;;;;16.02;7.30;;;;;;;7.78;100.00;100577.59;5090412;28;20028;-68
2021/12/29 07:26:30;;;;;;;18.60;7.85;;;;;;;7.80;100.00;100594.13;5090491;28;20103;-67
2021/12/29 07:28:56;;;;;;;17.98;7.32;;;;;;;7.77;100.00;100585.72;5088056;28;20135;-68
2021/12/29 07:31:22;;;;;;;16.25;6.68;;;;;;;7.76;100.00;100584.91;5090401;28;20063;-68
2021/12/29 07:33:47;;;;;;;17.85;7.20;;;;;;;7.75;100.00;100591.19;5090448;28;20437;-68
2021/12/29 07:36:13;;;;;;;16.55;7.35;;;;;;;7.73;100.00;100585.28;5089006;28;20109;-67
2021/12/29 07:38:39;;;;;;;19.98;7.60;;;;;;;7.74;100.00;100594.88;5089009;28;20466;-68
2021/12/29 07:41:05;;;;;;;23.65;7.65;;;;;;;7.70;100.00;100590.94;5088736;28;20116;-68
2021/12/29 07:43:30;;;;;;;17.30;7.35;;;;;;;7.73;100.00;100601.19;5089761;28;20430;-67
2021/12/29 07:45:56;;;;;;;18.13;6.20;;;;;;;7.71;100.00;100597.09;5089391;28;20028;-67
2021/12/29 07:48:27;;;;;;;14.68;7.25;;;;;;;7.72;100.00;100604.03;5089724;28;20031;-68
2021/12/29 07:50:53;;;;;;;13.57;5.70;;;;;;;7.71;100.00;100608.53;5089873;28;20023;-68
2021/12/29 07:53:19;;;;;;;16.33;6.03;;;;;;;7.69;100.00;100614.00;5070199;28;20036;-67
2021/12/29 07:55:44;;;;;;;17.95;6.85;;;;;;;7.70;100.00;100606.84;5070513;28;20107;-68
2021/12/29 07:58:10;;;;;;;18.08;7.07;;;;;;;7.66;100.00;100595.78;5070331;28;20143;-68
2021/12/29 08:00:35;;;;;;;18.30;7.38;;;;;;;7.67;100.00;100610.69;5070323;28;20056;-68
2021/12/29 08:03:01;;;;;;;15.40;5.63;;;;;;;7.68;100.00;100607.06;5068934;28;20157;-68
2021/12/29 08:05:26;;;;;;;12.98;6.53;;;;;;;7.67;100.00;100605.38;5070211;28;20029;-68
2021/12/29 08:07:52;;;;;;;19.83;7.25;;;;;;;7.69;100.00;100599.91;5070203;28;20050;-67
2021/12/29 08:10:17;;;;;;;18.60;6.63;;;;;;;7.67;100.00;100604.56;5070172;28;20518;-68
2021/12/29 08:12:43;;;;;;;16.02;5.75;;;;;;;7.69;100.00;100606.03;5070363;28;20082;-67
2021/12/29 08:15:09;;;;;;;13.32;6.95;;;;;;;7.71;100.00;100610.34;5070225;28;20028;-68
2021/12/29 08:17:36;;;;;;;14.02;6.10;;;;;;;7.71;100.00;100611.16;5070256;28;20067;-68
2021/12/29 08:20:03;;;;;;;20.02;6.78;;;;;;;7.73;100.00;100616.28;5068793;28;20049;-68
2021/12/29 08:22:28;;;;;;;13.75;6.68;;;;;;;7.74;100.00;100615.28;5089174;28;20118;-67
2021/12/29 08:24:54;;;;;;;19.77;6.90;;;;;;;7.73;100.00;100619.78;5089467;28;20115;-67
2021/12/29 08:27:20;;;;;;;14.70;6.95;;;;;;;7.74;100.00;100609.97;5089388;28;20031;-68
2021/12/29 08:29:48;;;;;;;15.85;6.28;;;;;;;7.74;100.00;100604.69;5089395;28;20434;-67
2021/12/29 08:32:14;;;;;;;17.42;6.38;;;;;;;7.75;100.00;100608.97;5069753;28;20043;-67
2021/12/29 08:34:39;;;;;;;15.75;7.13;;;;;;;7.74;100.00;100597.53;5069902;28;20024;-67
2021/12/29 08:37:05;;;;;;;13.30;6.45;;;;;;;7.79;100.00;100610.25;5069987;28;20036;-67
2021/12/29 08:39:30;;;;;;;14.07;6.38;;;;;;;7.82;100.00;100617.84;5069685;28;20020;-67
2021/12/29 08:41:55;;;;;;;20.27;7.53;;;;;;;7.83;100.00;100617.69;5068591;28;20086;-67
2021/12/29 08:44:21;;;;;;;13.00;6.63;;;;;;;7.85;100.00;100612.16;5068618;28;20131;-67
2021/12/29 08:46:47;;;;;;;15.70;6.82;;;;;;;7.86;100.00;100622.59;5069758;28;20031;-68
2021/12/29 08:49:13;;;;;;;18.10;7.63;;;;;;;7.85;100.00;100625.44;5069194;28;20472;-67
2021/12/29 08:51:40;;;;;;;15.15;7.88;;;;;;;7.89;100.00;100637.34;5069637;28;20111;-67
2021/12/29 08:54:05;;;;;;;13.23;6.55;;;;;;;7.88;100.00;100635.69;5088619;28;20059;-67
2021/12/29 08:56:31;;;;;;;16.50;8.48;;;;;;;7.93;100.00;100627.19;5089120;28;20084;-67
2021/12/29 08:58:57;;;;;;;16.35;7.80;;;;;;;7.93;100.00;100624.53;5089106;28;20051;-67
2021/12/29 09:01:23;;;;;;;14.50;7.40;;;;;;;7.95;100.00;100627.81;5088807;28;20078;-67
2021/12/29 09:03:50;;;;;;;18.35;7.13;;;;;;;7.97;100.00;100620.50;5088740;28;20067;-67
2021/12/29 09:06:16;;;;;;;14.73;6.95;;;;;;;7.98;100.00;100624.78;5089372;28;20039;-67
2021/12/29 09:08:42;;;;;;;16.25;7.13;;;;;;;7.97;100.00;100631.13;5088980;28;20085;-67
2021/12/29 09:11:08;;;;;;;14.07;6.05;;;;;;;7.96;100.00;100626.81;5088775;28;20028;-67
2021/12/29 09:13:34;;;;;;;15.27;5.88;;;;;;;8.02;100.00;100626.06;5089015;28;20059;-68
2021/12/29 09:15:59;;;;;;;14.20;6.63;;;;;;;8.02;100.00;100624.25;5089009;28;20548;-67
2021/12/29 09:18:27;;;;;;;24.13;7.85;;;;;;;8.05;100.00;100623.03;5087423;28;20047;-67
2021/12/29 09:20:55;;;;;;;16.92;6.38;;;;;;;8.10;100.00;100623.31;5088848;28;20020;-67
2021/12/29 09:23:20;;;;;;;11.73;5.28;;;;;;;8.11;100.00;100620.44;5088877;28;20028;-67
2021/12/29 09:25:47;;;;;;;14.90;7.25;;;;;;;8.16;100.00;100619.91;5088745;28;20069;-66
2021/12/29 09:28:17;;;;;;;15.20;6.50;;;;;;;8.19;100.00;100621.38;5088625;28;20949;-67
2021/12/29 09:30:45;;;;;;;16.48;6.53;;;;;;;8.21;100.00;100603.41;5088649;28;20962;-67
2021/12/29 09:33:11;;;;;;;12.20;6.07;;;;;;;8.23;100.00;100596.09;5088797;28;20040;-67
2021/12/29 09:35:37;;;;;;;17.33;6.75;;;;;;;8.26;100.00;100603.69;5088683;28;20027;-67
2021/12/29 09:38:05;;;;;;;15.05;7.38;;;;;;;8.23;100.00;100594.25;5088632;28;20032;-67
2021/12/29 09:40:31;;;;;;;16.55;7.43;;;;;;;8.26;100.00;100601.84;5087271;28;20012;-67
2021/12/29 09:42:56;;;;;;;17.25;7.25;;;;;;;8.29;100.00;100604.09;5088605;28;20035;-67
2021/12/29 09:45:22;;;;;;;15.13;6.28;;;;;;;8.30;100.00;100600.44;5088376;28;20028;-67
2021/12/29 09:47:49;;;;;;;16.73;7.72;;;;;;;8.28;100.00;100610.44;5082806;28;20032;-66
2021/12/29 09:50:17;;;;;;;16.70;7.32;;;;;;;8.29;100.00;100611.25;5072059;28;20063;-67
2021/12/29 09:52:43;;;;;;;14.30;7.50;;;;;;;8.29;100.00;100608.59;5075772;28;20059;-66
2021/12/29 09:55:12;;;;;;;14.82;6.90;;;;;;;8.30;100.00;100602.28;5075814;28;20054;-66
2021/12/29 09:57:44;;;;;;;14.90;7.00;;;;;;;8.29;100.00;100604.09;5076555;28;20047;-68
2021/12/29 10:00:22;;;;;;;15.32;6.93;;;;;;;8.32;100.00;100595.75;5076352;28;20053;-67
2021/12/29 10:02:49;;;;;;;16.85;7.55;;;;;;;8.35;100.00;100599.88;5075521;28;20032;-67
2021/12/29 10:05:14;;;;;;;15.48;6.25;;;;;;;8.41;100.00;100600.97;5077063;28;20020;-68
2021/12/29 10:07:40;;;;;;;14.75;6.85;;;;;;;8.46;100.00;100599.44;5075786;28;20036;-68
2021/12/29 10:10:19;;;;;;;13.60;6.10;;;;;;;8.54;100.00;100586.00;5076086;28;20488;-67
2021/12/29 10:12:45;;;;;;;15.63;6.50;;;;;;;8.64;100.00;100598.97;5076529;28;20043;-67
2021/12/29 10:15:11;;;;;;;17.00;7.28;;;;;;;8.76;100.00;100599.28;5076348;28;20031;-67
2021/12/29 10:17:36;;;;;;;14.00;7.07;;;;;;;8.89;100.00;100603.91;5075600;28;20016;-67
2021/12/29 10:20:28;;;;;;;13.80;6.05;;;;;;;8.98;100.00;100608.88;5076779;28;20027;-67
2021/12/29 10:22:58;;;;;;;14.93;6.63;;;;;;;9.03;100.00;100597.66;5074888;28;20046;-67
2021/12/29 10:25:24;;;;;;;12.98;6.28;;;;;;;9.05;100.00;100597.50;5076910;28;20016;-66
2021/12/29 10:27:51;;;;;;;14.07;5.30;;;;;;;9.05;100.00;100589.50;5075913;28;20055;-67
2021/12/29 10:30:28;;;;;;;11.88;5.70;;;;;;;9.04;100.00;100588.69;5075963;28;20029;-68
2021/12/29 10:32:56;;;;;;;15.23;5.95;;;;;;;8.99;99.66;100570.66;5076132;28;20039;-67
2021/12/29 10:35:28;;;;;;;15.60;5.82;;;;;;;9.04;99.38;100570.06;5075105;28;20051;-67
2021/12/29 10:38:07;;;;;;;13.23;5.47;;;;;;;9.05;99.55;100563.72;5074438;28;20035;-66
2021/12/29 10:40:34;;;;;;;13.98;5.78;;;;;;;9.03;99.65;100563.09;5072075;28;20024;-66
2021/12/29 10:43:01;;;;;;;14.95;7.18;;;;;;;9.00;99.67;100561.63;5070726;28;20051;-66
2021/12/29 10:45:39;;;;;;;14.52;6.25;;;;;;;9.02;99.68;100571.28;5071966;28;20024;-66
2021/12/29 10:48:23;;;;;;;11.35;4.93;;;;;;;9.04;99.80;100571.88;5071886;28;20032;-66
2021/12/29 10:51:05;;;;;;;11.43;5.03;;;;;;;9.04;99.13;100579.88;5091153;28;21006;-66
2021/12/29 10:53:33;;;;;;;10.80;4.75;;;;;;;9.02;99.61;100580.06;5090895;28;20072;-67
2021/12/29 10:55:59;;;;;;;14.68;6.30;;;;;;;9.07;99.56;100577.66;5090873;28;20024;-66
2021/12/29 10:58:28;;;;;;;13.35;5.88;;;;;;;9.09;99.35;100561.50;5091078;28;20031;-67
2021/12/29 11:01:04;;;;;;;12.55;5.57;;;;;;;9.07;99.02;100559.03;5090664;28;20047;-66
2021/12/29 11:03:31;;;;;;;12.13;5.38;;;;;;;9.05;98.81;100569.03;5090638;28;20047;-67
2021/12/29 11:06:01;;;;;;;10.75;4.63;;;;;;;9.01;98.71;100567.78;5091036;28;20071;-67
2021/12/29 11:08:45;;;;;;;10.75;5.20;;;;;;;8.99;98.78;100588.44;5090899;28;20066;-67
2021/12/29 11:11:11;;;;;;;10.88;5.10;;;;;;;8.95;99.12;100590.66;5090765;28;20044;-67
2021/12/29 11:13:36;;;;;;;12.15;5.15;;;;;;;8.95;99.65;100588.00;5090631;28;20024;-66
2021/12/29 11:16:05;;;;;;;17.08;5.25;;;;;;;8.95;99.29;100597.81;5090767;28;20027;-66
2021/12/29 11:18:51;;;;;;;11.20;4.85;;;;;;;8.92;98.81;100590.22;5090715;28;20051;-66
2021/12/29 11:21:42;;;;;;;9.15;5.13;;;;;;;8.96;99.73;100599.44;5090647;28;20020;-67
2021/12/29 11:24:23;;;;;;;16.20;6.35;;;;;;;8.95;99.78;100597.81;5089376;28;20453;-67